Time;durP1;ratioP1;P1;durP2;ratioP2;P2;SDS_P1;SDS_P2;PMS_P1;PMS_P2;Temp;Humidity;BMP_temperature;BMP_pressure;BME280_temperature;BME280_humidity;BME280_pressure;Samples;Min_cycle;Max_cycle;Signal;HPM_P1;HPM_P2
2023/08/23 00:00:04;;;;;;;5.90;3.92;;;21.40;99.90;;;;;;4967028;28;20651;-71
2023/08/23 00:02:29;;;;;;;5.85;4.40;;;21.40;99.90;;;;;;4970097;28;20202;-72
2023/08/23 00:04:55;;;;;;;10.20;4.82;;;21.40;99.90;;;;;;4967402;28;20222;-72
2023/08/23 00:07:21;;;;;;;8.90;4.47;;;21.30;99.90;;;;;;4972881;28;20211;-72
2023/08/23 00:09:46;;;;;;;8.27;4.43;;;21.30;99.90;;;;;;4967548;28;20693;-71
2023/08/23 00:12:12;;;;;;;8.57;4.20;;;21.30;99.90;;;;;;4965860;28;20207;-72
2023/08/23 00:14:38;;;;;;;8.68;3.92;;;21.30;99.90;;;;;;4966443;28;20221;-71
2023/08/23 00:17:04;;;;;;;6.20;4.85;;;21.30;99.90;;;;;;4965370;28;20214;-71
2023/08/23 00:19:30;;;;;;;8.88;4.15;;;21.30;99.90;;;;;;4969011;28;20266;-72
2023/08/23 00:21:56;;;;;;;6.63;4.15;;;21.30;99.90;;;;;;4974146;28;20167;-72
2023/08/23 00:24:21;;;;;;;5.40;3.83;;;21.30;99.90;;;;;;4972576;28;20218;-72
2023/08/23 00:26:47;;;;;;;7.32;4.13;;;21.30;99.90;;;;;;4972445;28;20206;-71
2023/08/23 00:29:12;;;;;;;8.02;3.60;;;21.30;99.90;;;;;;4971008;28;20605;-72
2023/08/23 00:31:38;;;;;;;7.28;4.20;;;21.30;99.90;;;;;;4971428;28;20296;-72
2023/08/23 00:34:03;;;;;;;7.53;4.22;;;21.20;99.90;;;;;;4968469;28;20248;-71
2023/08/23 00:36:29;;;;;;;5.57;3.85;;;21.20;99.90;;;;;;4970203;28;20206;-71
2023/08/23 00:38:55;;;;;;;7.13;4.03;;;21.20;99.90;;;;;;4968918;28;20213;-72
2023/08/23 00:41:22;;;;;;;6.47;3.88;;;21.20;99.90;;;;;;4967382;28;20214;-72
2023/08/23 00:43:47;;;;;;;6.53;3.85;;;21.20;99.90;;;;;;4964574;28;20295;-71
2023/08/23 00:46:14;;;;;;;8.55;3.85;;;21.20;99.90;;;;;;4966875;28;20680;-72
2023/08/23 00:48:40;;;;;;;6.57;3.75;;;21.10;99.90;;;;;;4970039;28;20179;-71
2023/08/23 00:51:07;;;;;;;6.88;4.10;;;21.10;99.90;;;;;;4969680;28;20207;-71
2023/08/23 00:53:32;;;;;;;6.15;3.92;;;21.10;99.90;;;;;;4966623;28;20741;-71
2023/08/23 00:55:59;;;;;;;7.65;3.95;;;21.20;99.90;;;;;;4962499;28;20346;-71
2023/08/23 00:58:25;;;;;;;5.72;4.00;;;21.00;99.90;;;;;;4965694;28;20301;-72
2023/08/23 01:00:53;;;;;;;5.63;4.00;;;21.10;99.90;;;;;;4973372;28;21033;-71
2023/08/23 01:03:19;;;;;;;7.72;4.03;;;21.00;99.90;;;;;;4972261;28;20597;-71
2023/08/23 01:06:10;;;;;;;5.18;3.67;;;21.00;99.90;;;;;;4971697;28;20221;-72
2023/08/23 01:09:02;;;;;;;5.13;3.55;;;21.00;99.90;;;;;;4967591;28;20697;-72
2023/08/23 01:11:43;;;;;;;7.75;3.75;;;21.00;99.90;;;;;;4969331;28;20217;-71
2023/08/23 01:14:21;;;;;;;8.50;4.00;;;21.00;99.90;;;;;;4968448;28;20238;-71
2023/08/23 01:16:48;;;;;;;5.97;3.97;;;20.90;99.90;;;;;;4967729;28;20221;-71
2023/08/23 01:19:44;;;;;;;6.10;4.55;;;20.90;99.90;;;;;;4968854;28;20182;-72
2023/08/23 01:22:13;;;;;;;7.45;3.97;;;20.80;99.90;;;;;;4968532;28;20211;-71
2023/08/23 01:24:39;;;;;;;7.25;4.15;;;20.80;99.90;;;;;;4967882;28;20225;-70
2023/08/23 01:27:05;;;;;;;4.88;3.80;;;20.80;99.90;;;;;;4964373;28;20629;-72
2023/08/23 01:29:31;;;;;;;6.90;4.10;;;20.80;99.90;;;;;;4967038;28;20214;-72
2023/08/23 01:32:06;;;;;;;8.05;4.13;;;20.80;99.90;;;;;;4963926;28;20330;-72
2023/08/23 01:34:39;;;;;;;7.32;4.28;;;20.70;99.90;;;;;;4961881;28;20564;-72
2023/08/23 01:37:07;;;;;;;8.25;4.50;;;20.70;99.90;;;;;;4962668;28;20175;-71
2023/08/23 01:39:33;;;;;;;7.25;4.25;;;20.70;99.90;;;;;;4969098;28;20206;-72
2023/08/23 01:42:00;;;;;;;5.78;4.03;;;20.70;99.90;;;;;;4972002;28;20705;-73
2023/08/23 01:44:25;;;;;;;4.20;3.80;;;20.70;99.90;;;;;;4971078;28;20265;-72
2023/08/23 01:46:51;;;;;;;4.25;3.85;;;20.70;99.90;;;;;;4970950;28;20252;-72
2023/08/23 01:49:17;;;;;;;7.57;4.15;;;20.70;99.90;;;;;;4969576;28;20330;-73
2023/08/23 01:51:42;;;;;;;5.72;4.40;;;20.60;99.90;;;;;;4970306;28;20179;-72
2023/08/23 01:54:08;;;;;;;7.30;4.13;;;20.60;99.90;;;;;;4969444;28;20713;-72
2023/08/23 01:56:33;;;;;;;5.97;4.20;;;20.60;99.90;;;;;;4968823;28;20198;-72
2023/08/23 01:58:59;;;;;;;9.10;5.10;;;20.60;99.90;;;;;;4967063;28;20646;-72
2023/08/23 02:01:24;;;;;;;4.72;4.22;;;20.60;99.90;;;;;;4967089;28;20720;-72
2023/08/23 02:03:50;;;;;;;7.07;4.35;;;20.60;99.90;;;;;;4967132;28;20202;-72
2023/08/23 02:06:16;;;;;;;5.30;4.70;;;20.60;99.90;;;;;;4965053;28;20298;-72
2023/08/23 02:08:41;;;;;;;7.90;4.50;;;20.50;99.90;;;;;;4964957;28;20784;-72
2023/08/23 02:11:07;;;;;;;8.10;4.38;;;20.50;99.90;;;;;;4960696;28;20218;-71
2023/08/23 02:13:32;;;;;;;5.80;4.40;;;20.40;99.90;;;;;;4965576;28;20218;-72
2023/08/23 02:15:58;;;;;;;7.32;4.50;;;20.30;99.90;;;;;;4960564;28;20229;-72
2023/08/23 02:18:24;;;;;;;4.45;4.05;;;20.30;99.90;;;;;;4965711;28;20246;-72
2023/08/23 02:20:59;;;;;;;5.78;4.38;;;20.30;99.90;;;;;;4971656;28;20675;-72
2023/08/23 02:23:25;;;;;;;5.30;4.50;;;20.30;99.90;;;;;;4969572;28;20596;-72
2023/08/23 02:25:52;;;;;;;7.20;4.20;;;20.30;99.90;;;;;;4970388;28;20206;-72
2023/08/23 02:28:17;;;;;;;7.15;4.22;;;20.30;99.90;;;;;;4969394;28;20183;-73
2023/08/23 02:30:43;;;;;;;5.72;4.03;;;20.30;99.90;;;;;;4969946;28;20700;-72
2023/08/23 02:33:09;;;;;;;6.63;4.28;;;20.30;99.90;;;;;;4968720;28;20581;-72
2023/08/23 02:35:40;;;;;;;6.43;4.70;;;20.30;99.90;;;;;;4965332;28;20218;-72
2023/08/23 02:38:08;;;;;;;7.20;4.32;;;20.30;99.90;;;;;;4965141;28;20214;-71
2023/08/23 02:40:34;;;;;;;7.25;4.63;;;20.30;99.90;;;;;;4967534;28;20356;-73
2023/08/23 02:42:59;;;;;;;9.45;5.07;;;20.30;99.90;;;;;;4967915;28;20659;-72
2023/08/23 02:45:25;;;;;;;9.23;5.30;;;20.40;99.90;;;;;;4965181;28;20732;-71
2023/08/23 02:47:50;;;;;;;12.98;7.55;;;20.40;99.90;;;;;;4964705;28;20293;-71
2023/08/23 02:50:16;;;;;;;9.63;6.32;;;20.30;99.90;;;;;;4963274;28;20230;-71
2023/08/23 02:52:42;;;;;;;8.88;5.85;;;20.30;99.90;;;;;;4964408;28;20214;-70
2023/08/23 02:55:08;;;;;;;10.18;6.32;;;20.30;99.90;;;;;;4961293;28;20202;-71
2023/08/23 02:57:33;;;;;;;9.32;6.32;;;20.30;99.90;;;;;;4964041;28;20288;-71
2023/08/23 02:59:59;;;;;;;8.00;5.30;;;20.30;99.90;;;;;;4967456;28;20263;-73
2023/08/23 03:02:24;;;;;;;9.60;5.90;;;20.20;99.90;;;;;;4969952;28;20210;-71
2023/08/23 03:04:50;;;;;;;9.55;6.03;;;20.20;99.90;;;;;;4973837;28;20581;-71
2023/08/23 03:07:16;;;;;;;10.07;5.32;;;20.20;99.90;;;;;;4975019;28;20685;-72
2023/08/23 03:09:41;;;;;;;6.65;4.90;;;20.20;99.90;;;;;;4978476;28;20200;-72
2023/08/23 03:12:07;;;;;;;7.40;5.00;;;20.10;99.90;;;;;;4974415;28;20213;-71
2023/08/23 03:14:33;;;;;;;7.18;5.30;;;20.10;99.90;;;;;;4976860;28;20217;-72
2023/08/23 03:16:58;;;;;;;8.93;5.00;;;20.00;99.90;;;;;;4975218;28;20202;-72
2023/08/23 03:19:24;;;;;;;8.35;5.45;;;20.10;99.90;;;;;;4970356;28;20191;-71
2023/08/23 03:21:49;;;;;;;8.55;5.07;;;20.00;99.90;;;;;;4965622;28;20175;-72
2023/08/23 03:24:15;;;;;;;6.97;5.25;;;20.00;99.90;;;;;;4966385;28;20316;-72
2023/08/23 03:26:41;;;;;;;13.35;5.80;;;20.00;99.90;;;;;;4968459;28;20206;-73
2023/08/23 03:29:07;;;;;;;8.48;4.68;;;20.00;99.90;;;;;;4965818;28;20230;-70
2023/08/23 03:31:33;;;;;;;9.95;5.55;;;20.10;99.90;;;;;;4968385;28;20237;-72
2023/08/23 03:33:58;;;;;;;7.07;4.93;;;20.00;99.90;;;;;;4965775;28;20713;-72
2023/08/23 03:36:24;;;;;;;8.43;5.07;;;20.00;99.90;;;;;;4967211;28;20658;-72
2023/08/23 03:38:49;;;;;;;7.97;5.53;;;20.00;99.90;;;;;;4970864;28;20206;-72
2023/08/23 03:41:15;;;;;;;8.93;5.85;;;19.90;99.90;;;;;;4973791;28;20246;-72
2023/08/23 03:43:41;;;;;;;9.88;5.97;;;19.80;99.90;;;;;;4973877;28;20222;-69
2023/08/23 03:46:07;;;;;;;9.07;4.97;;;19.70;99.90;;;;;;4972625;28;20182;-69
2023/08/23 03:48:32;;;;;;;7.20;5.50;;;19.80;99.90;;;;;;4974412;28;20214;-72
2023/08/23 03:50:59;;;;;;;12.00;5.88;;;19.90;99.90;;;;;;4973125;28;20218;-72
2023/08/23 03:53:25;;;;;;;9.30;5.93;;;19.90;99.90;;;;;;4973638;28;20598;-72
2023/08/23 03:55:52;;;;;;;7.10;5.43;;;19.90;99.90;;;;;;4973610;28;20220;-72
2023/08/23 03:58:17;;;;;;;7.10;5.70;;;19.90;99.90;;;;;;4969798;28;20190;-73
2023/08/23 04:00:49;;;;;;;9.30;5.60;;;19.90;99.90;;;;;;4971020;28;20175;-72
2023/08/23 04:03:14;;;;;;;7.95;5.65;;;19.80;99.90;;;;;;4967292;28;20203;-72
2023/08/23 04:05:40;;;;;;;9.02;6.28;;;19.90;99.90;;;;;;4969561;28;20301;-71
2023/08/23 04:08:06;;;;;;;7.97;5.38;;;19.80;99.90;;;;;;4968672;28;20685;-72
2023/08/23 04:10:32;;;;;;;9.55;5.68;;;19.80;99.90;;;;;;4966358;28;20206;-72
2023/08/23 04:12:58;;;;;;;8.23;5.43;;;19.90;99.90;;;;;;4965677;28;20594;-72
2023/08/23 04:15:23;;;;;;;7.70;5.43;;;19.90;99.90;;;;;;4971312;28;20207;-72
2023/08/23 04:17:49;;;;;;;9.90;5.65;;;19.90;99.90;;;;;;4964865;28;20317;-72
2023/08/23 04:20:15;;;;;;;8.02;5.75;;;19.90;99.90;;;;;;4972284;28;20359;-72
2023/08/23 04:22:40;;;;;;;11.57;5.85;;;20.00;99.90;;;;;;4973437;28;20260;-72
2023/08/23 04:25:07;;;;;;;7.13;5.45;;;20.00;99.90;;;;;;4972575;28;20290;-72
2023/08/23 04:27:33;;;;;;;5.85;5.10;;;20.00;99.90;;;;;;4972888;28;20210;-72
2023/08/23 04:29:58;;;;;;;7.85;5.50;;;20.10;99.90;;;;;;4972056;28;20210;-73
2023/08/23 04:32:24;;;;;;;8.93;5.72;;;20.20;99.90;;;;;;4970051;28;20289;-72
2023/08/23 04:34:50;;;;;;;7.85;5.75;;;20.20;99.90;;;;;;4969933;28;20222;-74
2023/08/23 04:37:16;;;;;;;9.23;5.82;;;20.30;99.90;;;;;;4962906;28;20267;-73
2023/08/23 04:39:41;;;;;;;9.45;5.47;;;20.80;99.90;;;;;;4970064;28;20716;-73
2023/08/23 04:42:07;;;;;;;9.00;5.18;;;21.70;99.90;;;;;;4969499;28;20214;-72
2023/08/23 04:44:33;;;;;;;7.72;5.20;;;22.50;99.90;;;;;;4971763;28;20285;-72
2023/08/23 04:46:58;;;;;;;5.55;4.60;;;23.20;99.90;;;;;;4966202;28;20211;-73
2023/08/23 04:49:24;;;;;;;5.63;4.30;;;23.90;99.90;;;;;;4971183;28;20203;-73
2023/08/23 04:51:49;;;;;;;9.85;5.15;;;23.90;99.90;;;;;;4966504;28;20182;-72
2023/08/23 04:54:15;;;;;;;7.57;5.00;;;24.60;99.90;;;;;;4966985;28;20313;-73
2023/08/23 04:56:41;;;;;;;5.47;4.25;;;25.50;99.90;;;;;;4971768;28;20218;-73
2023/08/23 04:59:06;;;;;;;8.02;4.10;;;26.10;99.90;;;;;;4966110;28;20214;-73
2023/08/23 05:01:32;;;;;;;8.82;4.32;;;26.70;99.90;;;;;;4972364;28;20218;-70
2023/08/23 05:03:57;;;;;;;7.78;4.85;;;26.90;99.90;;;;;;4972696;28;20268;-71
2023/08/23 05:06:23;;;;;;;7.68;4.63;;;27.10;99.90;;;;;;4969532;28;20739;-71
2023/08/23 05:08:49;;;;;;;6.22;4.00;;;27.60;99.90;;;;;;4971473;28;20214;-71
2023/08/23 05:11:14;;;;;;;5.63;4.32;;;28.00;99.90;;;;;;4969255;28;20213;-71
2023/08/23 05:13:40;;;;;;;5.65;4.63;;;28.20;99.90;;;;;;4971978;28;20210;-71
2023/08/23 05:16:05;;;;;;;7.35;4.53;;;28.40;99.90;;;;;;4968794;28;20261;-71
2023/08/23 05:18:31;;;;;;;7.85;4.80;;;28.30;99.90;;;;;;4968995;28;20210;-71
2023/08/23 05:20:59;;;;;;;5.63;4.35;;;27.10;99.90;;;;;;4967943;28;20202;-72
2023/08/23 05:23:25;;;;;;;10.75;5.30;;;26.80;99.90;;;;;;4969881;28;20211;-71
2023/08/23 05:25:52;;;;;;;24.35;20.30;;;27.10;99.90;;;;;;4964165;28;20229;-71
2023/08/23 05:28:19;;;;;;;14.05;8.45;;;27.50;99.90;;;;;;4964692;28;20190;-72
2023/08/23 05:30:45;;;;;;;7.70;5.88;;;28.00;99.90;;;;;;4965849;28;20576;-72
2023/08/23 05:33:12;;;;;;;9.63;6.40;;;28.50;99.90;;;;;;4962663;28;20206;-71
2023/08/23 05:35:43;;;;;;;8.15;4.68;;;29.10;99.90;;;;;;4965431;28;20210;-71
2023/08/23 05:38:12;;;;;;;5.00;4.30;;;29.70;99.90;;;;;;4976844;28;20221;-71
2023/08/23 05:40:39;;;;;;;7.00;4.15;;;30.00;99.90;;;;;;4969037;28;20210;-70
2023/08/23 05:43:05;;;;;;;5.70;4.30;;;30.90;99.90;;;;;;4972474;28;20193;-72
2023/08/23 05:45:31;;;;;;;7.43;5.40;;;31.20;99.90;;;;;;4984846;28;20218;-73
2023/08/23 05:47:58;;;;;;;8.10;7.22;;;31.10;99.90;;;;;;4970680;28;20198;-72
2023/08/23 05:50:24;;;;;;;12.48;11.18;;;32.00;99.90;;;;;;4967678;28;20764;-73
2023/08/23 05:52:49;;;;;;;11.48;9.60;;;32.80;99.90;;;;;;4969792;28;20209;-72
2023/08/23 05:55:15;;;;;;;6.18;4.53;;;32.90;99.90;;;;;;4963198;28;20256;-72
2023/08/23 05:57:41;;;;;;;5.40;4.85;;;33.10;99.90;;;;;;4969179;28;20269;-71
2023/08/23 06:00:07;;;;;;;6.68;3.78;;;33.00;99.90;;;;;;4966690;28;20217;-72
2023/08/23 06:02:32;;;;;;;5.38;3.90;;;32.80;99.90;;;;;;4966934;28;20693;-72
2023/08/23 06:04:58;;;;;;;3.85;3.50;;;33.30;99.90;;;;;;4966129;28;20218;-72
2023/08/23 06:07:24;;;;;;;7.30;4.20;;;33.40;99.90;;;;;;4964587;28;20324;-73
2023/08/23 06:09:50;;;;;;;4.85;3.75;;;33.70;99.90;;;;;;4966119;28;20289;-72
2023/08/23 06:12:16;;;;;;;4.93;3.28;;;34.10;99.90;;;;;;4962227;28;20206;-72
2023/08/23 06:14:41;;;;;;;4.93;3.80;;;34.00;99.90;;;;;;4964932;28;20586;-72
2023/08/23 06:17:07;;;;;;;3.97;3.50;;;34.00;99.90;;;;;;4967225;28;20649;-71
2023/08/23 06:19:33;;;;;;;5.03;4.07;;;34.70;99.90;;;;;;4967416;28;20735;-72
2023/08/23 06:21:58;;;;;;;9.18;6.80;;;35.20;99.90;;;;;;4971569;28;20202;-73
2023/08/23 06:24:24;;;;;;;9.55;8.68;;;35.20;98.70;;;;;;4964546;28;20210;-72
2023/08/23 06:26:50;;;;;;;6.25;5.60;;;35.30;98.00;;;;;;4970019;28;20213;-73
2023/08/23 06:29:17;;;;;;;5.50;4.57;;;34.70;98.40;;;;;;4967192;28;20221;-72
2023/08/23 06:31:42;;;;;;;4.47;4.03;;;35.10;97.70;;;;;;4968979;28;20241;-69
2023/08/23 06:34:08;;;;;;;4.85;3.80;;;35.60;96.50;;;;;;4967502;28;20241;-72
2023/08/23 06:36:34;;;;;;;6.30;4.30;;;35.10;96.70;;;;;;4967478;28;20301;-72
2023/08/23 06:38:59;;;;;;;5.05;3.90;;;35.00;96.30;;;;;;4967215;28;20293;-71
2023/08/23 06:41:25;;;;;;;5.85;3.70;;;34.80;96.10;;;;;;4964946;28;20211;-70
2023/08/23 06:43:59;;;;;;;4.15;3.75;;;35.10;96.00;;;;;;4965082;28;20305;-70
2023/08/23 06:46:25;;;;;;;4.50;3.30;;;35.50;95.10;;;;;;4966905;28;20178;-70
2023/08/23 06:48:50;;;;;;;5.72;3.60;;;35.90;94.60;;;;;;4965841;28;20181;-69
2023/08/23 06:51:16;;;;;;;3.92;3.50;;;36.10;93.70;;;;;;4961964;28;20206;-70
2023/08/23 06:53:42;;;;;;;7.15;3.58;;;36.70;93.10;;;;;;4969909;28;20229;-68
2023/08/23 06:56:08;;;;;;;4.10;3.70;;;36.70;92.00;;;;;;4966895;28;20689;-69
2023/08/23 06:58:34;;;;;;;3.60;3.13;;;36.90;91.00;;;;;;4966737;28;20589;-71
2023/08/23 07:00:59;;;;;;;3.40;3.00;;;36.90;90.40;;;;;;4970684;28;20360;-71
2023/08/23 07:03:25;;;;;;;4.30;3.25;;;36.60;90.30;;;;;;4970001;28;20577;-71
2023/08/23 07:05:50;;;;;;;3.17;2.88;;;36.80;89.90;;;;;;4969813;28;20265;-71
2023/08/23 07:08:17;;;;;;;6.00;3.40;;;37.60;87.50;;;;;;4968164;28;20206;-70
2023/08/23 07:10:43;;;;;;;4.85;2.63;;;37.60;86.60;;;;;;4968998;28;20217;-71
2023/08/23 07:13:08;;;;;;;4.38;2.95;;;37.70;85.40;;;;;;4967987;28;20178;-71
2023/08/23 07:15:35;;;;;;;4.18;3.80;;;38.30;84.20;;;;;;4967072;28;20582;-71
2023/08/23 07:18:01;;;;;;;9.43;6.47;;;37.50;83.70;;;;;;4966948;28;20696;-71
2023/08/23 07:20:27;;;;;;;4.47;4.07;;;37.70;83.20;;;;;;4963983;28;20249;-71
2023/08/23 07:22:53;;;;;;;4.03;3.40;;;38.00;82.50;;;;;;4966471;28;20290;-71
2023/08/23 07:25:18;;;;;;;6.00;3.28;;;37.80;81.60;;;;;;4963353;28;20195;-71
2023/08/23 07:27:44;;;;;;;3.53;3.22;;;38.10;81.80;;;;;;4965809;28;20228;-71
2023/08/23 07:30:11;;;;;;;3.92;2.97;;;38.40;80.30;;;;;;4962396;28;20765;-71
2023/08/23 07:32:37;;;;;;;4.80;3.20;;;37.90;80.40;;;;;;4963931;28;20233;-71
2023/08/23 07:35:03;;;;;;;5.32;2.55;;;38.00;80.40;;;;;;4961761;28;20249;-71
2023/08/23 07:37:29;;;;;;;5.03;2.97;;;38.40;79.70;;;;;;4961558;28;20225;-72
2023/08/23 07:39:55;;;;;;;4.63;2.90;;;39.30;78.50;;;;;;4970870;28;20178;-71
2023/08/23 07:42:21;;;;;;;4.22;3.03;;;39.20;77.80;;;;;;4969916;28;20688;-71
2023/08/23 07:44:46;;;;;;;3.92;3.55;;;39.40;77.60;;;;;;4969838;28;20213;-71
2023/08/23 07:47:12;;;;;;;5.55;4.90;;;39.10;76.60;;;;;;4968499;28;20210;-71
2023/08/23 07:49:38;;;;;;;7.82;5.03;;;38.70;78.10;;;;;;4968678;28;20616;-70
2023/08/23 07:52:04;;;;;;;8.02;5.57;;;38.30;79.00;;;;;;4968475;28;20576;-71
2023/08/23 07:54:30;;;;;;;4.28;3.85;;;38.30;78.20;;;;;;4966757;28;20629;-71
2023/08/23 07:56:55;;;;;;;3.15;2.80;;;38.10;78.90;;;;;;4967208;28;20229;-71
2023/08/23 07:59:21;;;;;;;5.78;4.93;;;38.30;78.10;;;;;;4964823;28;20294;-71
2023/08/23 08:01:47;;;;;;;4.82;4.05;;;38.40;78.00;;;;;;4969456;28;20208;-70
2023/08/23 08:04:13;;;;;;;4.80;3.33;;;38.40;78.60;;;;;;4963281;28;20202;-71
2023/08/23 08:06:39;;;;;;;5.00;3.58;;;38.40;78.30;;;;;;4965209;28;20708;-69
2023/08/23 08:09:05;;;;;;;4.32;3.30;;;38.90;77.90;;;;;;4963490;28;20210;-70
2023/08/23 08:11:31;;;;;;;6.88;2.90;;;38.80;77.90;;;;;;4966323;28;20229;-71
2023/08/23 08:13:57;;;;;;;5.43;2.67;;;39.00;77.20;;;;;;4964513;28;20620;-70
2023/08/23 08:16:23;;;;;;;4.22;2.47;;;38.80;78.00;;;;;;4970564;28;20714;-70
2023/08/23 08:18:48;;;;;;;4.28;2.75;;;38.40;79.00;;;;;;4970743;28;20178;-70
2023/08/23 08:21:14;;;;;;;4.70;2.65;;;38.40;79.10;;;;;;4971667;28;20240;-71
2023/08/23 08:23:40;;;;;;;3.95;2.92;;;38.60;78.30;;;;;;4969966;28;20334;-70
2023/08/23 08:26:06;;;;;;;3.20;2.50;;;38.40;78.50;;;;;;4972417;28;20257;-71
2023/08/23 08:28:32;;;;;;;5.35;2.85;;;38.40;78.70;;;;;;4971979;28;20280;-70
2023/08/23 08:30:57;;;;;;;4.22;2.88;;;38.40;78.60;;;;;;4972193;28;20619;-70
2023/08/23 08:33:23;;;;;;;4.78;3.05;;;38.20;79.00;;;;;;4969113;28;20218;-71
2023/08/23 08:35:49;;;;;;;3.58;2.80;;;38.10;78.90;;;;;;4970064;28;20206;-71
2023/08/23 08:38:14;;;;;;;5.10;2.47;;;37.60;79.70;;;;;;4966369;28;20202;-71
2023/08/23 08:40:40;;;;;;;4.18;3.13;;;37.70;79.60;;;;;;4967872;28;20213;-71
2023/08/23 08:43:06;;;;;;;6.70;4.10;;;37.50;79.60;;;;;;4968054;28;20224;-71
2023/08/23 08:45:32;;;;;;;6.40;4.53;;;37.00;81.30;;;;;;4966803;28;20214;-71
2023/08/23 08:47:58;;;;;;;5.25;3.10;;;36.50;81.70;;;;;;4967154;28;20216;-71
2023/08/23 08:50:30;;;;;;;6.95;4.50;;;36.40;82.50;;;;;;4964840;28;20261;-71
2023/08/23 08:52:59;;;;;;;6.47;3.22;;;36.20;82.70;;;;;;4965946;28;20315;-71
2023/08/23 08:55:27;;;;;;;5.03;3.00;;;36.30;82.30;;;;;;4964076;28;20244;-71
2023/08/23 08:57:54;;;;;;;6.95;4.20;;;36.80;81.40;;;;;;4966319;28;20178;-71
2023/08/23 09:00:24;;;;;;;6.80;3.92;;;37.00;80.60;;;;;;4972995;28;20209;-71
2023/08/23 09:02:52;;;;;;;5.45;2.90;;;37.20;80.30;;;;;;4972486;28;20212;-71
2023/08/23 09:05:20;;;;;;;5.25;4.20;;;36.80;81.20;;;;;;4970943;28;20214;-70
2023/08/23 09:07:47;;;;;;;4.15;2.70;;;36.30;81.70;;;;;;4972033;28;20202;-71
2023/08/23 09:10:13;;;;;;;5.72;4.30;;;35.60;82.10;;;;;;4969129;28;20213;-71
2023/08/23 09:12:39;;;;;;;4.07;2.60;;;35.50;83.10;;;;;;4970050;28;20553;-70
2023/08/23 09:15:05;;;;;;;7.93;3.05;;;35.40;83.20;;;;;;4968365;28;20289;-71
2023/08/23 09:17:34;;;;;;;5.32;2.45;;;35.20;84.10;;;;;;4966266;28;20211;-70
2023/08/23 09:20:04;;;;;;;4.78;2.38;;;35.00;83.90;;;;;;4969152;28;20230;-71
2023/08/23 09:22:30;;;;;;;4.07;2.28;;;34.40;85.60;;;;;;4966355;28;20195;-71
2023/08/23 09:24:55;;;;;;;6.25;2.50;;;33.70;86.50;;;;;;4969231;28;20200;-68
2023/08/23 09:27:22;;;;;;;4.30;2.83;;;32.70;89.10;;;;;;4964393;28;20203;-71
2023/08/23 09:29:48;;;;;;;5.13;2.58;;;32.50;90.10;;;;;;4967060;28;20233;-71
2023/08/23 09:32:13;;;;;;;3.60;2.75;;;33.10;89.50;;;;;;4966539;28;20238;-71
2023/08/23 09:34:39;;;;;;;3.88;2.85;;;33.10;90.10;;;;;;4965660;28;20771;-70
2023/08/23 09:37:08;;;;;;;7.68;3.40;;;33.40;88.80;;;;;;4963550;28;20190;-71
2023/08/23 09:39:35;;;;;;;6.47;3.28;;;33.40;88.50;;;;;;4971618;28;20206;-71
2023/08/23 09:42:06;;;;;;;3.35;2.38;;;33.40;88.40;;;;;;4971893;28;20293;-71
2023/08/23 09:44:40;;;;;;;3.58;2.25;;;33.30;89.10;;;;;;4970627;28;20237;-72
2023/08/23 09:47:15;;;;;;;5.93;2.42;;;32.80;89.50;;;;;;4971014;28;20754;-72
2023/08/23 09:49:43;;;;;;;2.80;1.88;;;32.40;90.30;;;;;;4970024;28;20227;-70
2023/08/23 09:52:11;;;;;;;5.45;2.67;;;32.40;90.10;;;;;;4969940;28;20182;-71
2023/08/23 09:55:01;;;;;;;3.20;2.30;;;32.00;90.20;;;;;;4970274;28;20219;-71
2023/08/23 09:57:26;;;;;;;3.13;2.05;;;32.20;90.90;;;;;;4970288;28;20689;-71
2023/08/23 09:59:53;;;;;;;3.47;2.20;;;32.30;90.50;;;;;;4969081;28;20217;-71
2023/08/23 10:02:19;;;;;;;4.28;1.80;;;32.10;90.80;;;;;;4966124;28;20218;-70
2023/08/23 10:04:45;;;;;;;2.55;2.00;;;31.90;90.60;;;;;;4967658;28;20606;-71
2023/08/23 10:07:15;;;;;;;4.22;1.90;;;31.90;90.70;;;;;;4965089;28;20312;-71
2023/08/23 10:09:41;;;;;;;3.28;2.10;;;31.70;91.10;;;;;;4965703;28;20305;-70
2023/08/23 10:12:12;;;;;;;1.92;1.80;;;31.90;90.90;;;;;;4963213;28;20301;-71
2023/08/23 10:14:41;;;;;;;3.53;1.65;;;32.20;90.40;;;;;;4962486;28;20577;-71
2023/08/23 10:17:09;;;;;;;3.53;1.80;;;31.90;90.50;;;;;;4964288;28;20217;-71
2023/08/23 10:19:36;;;;;;;4.22;1.92;;;31.80;90.40;;;;;;4971270;28;20206;-70
2023/08/23 10:22:01;;;;;;;4.90;1.70;;;31.70;90.20;;;;;;4971366;28;20225;-71
2023/08/23 10:24:34;;;;;;;4.97;1.60;;;31.50;90.70;;;;;;4967968;28;20214;-73
2023/08/23 10:27:07;;;;;;;3.55;1.90;;;31.30;91.10;;;;;;4970631;28;20230;-71
2023/08/23 10:29:36;;;;;;;5.05;1.80;;;31.40;91.00;;;;;;4969049;28;20619;-71
2023/08/23 10:32:08;;;;;;;3.47;2.08;;;31.50;91.30;;;;;;4968284;28;20233;-71
2023/08/23 10:34:38;;;;;;;5.38;1.58;;;31.60;91.00;;;;;;4966051;28;20225;-71
2023/08/23 10:37:18;;;;;;;4.68;1.80;;;31.50;91.30;;;;;;4966665;28;20589;-72
2023/08/23 10:39:54;;;;;;;4.03;2.30;;;31.60;91.10;;;;;;4966987;28;20273;-71
2023/08/23 10:42:21;;;;;;;6.72;3.72;;;31.60;91.10;;;;;;4964065;28;20570;-71
2023/08/23 10:44:59;;;;;;;2.50;1.95;;;31.50;91.30;;;;;;4964493;28;20562;-71
2023/08/23 10:47:26;;;;;;;2.88;2.08;;;31.10;91.20;;;;;;4976879;28;20748;-71
2023/08/23 10:49:52;;;;;;;4.65;2.97;;;30.70;91.20;;;;;;4964340;28;20226;-72
2023/08/23 10:52:18;;;;;;;6.20;1.90;;;30.40;91.80;;;;;;4960724;28;20179;-72
2023/08/23 10:54:43;;;;;;;4.35;2.08;;;30.30;91.80;;;;;;4970022;28;20204;-71
2023/08/23 10:57:09;;;;;;;3.83;1.58;;;30.30;92.20;;;;;;4970873;28;20229;-72
2023/08/23 10:59:35;;;;;;;4.88;1.92;;;30.40;92.40;;;;;;4969225;28;20642;-72
2023/08/23 11:02:01;;;;;;;1.77;1.50;;;30.60;92.30;;;;;;4969730;28;20630;-72
2023/08/23 11:04:27;;;;;;;5.25;1.55;;;30.80;92.40;;;;;;4967652;28;20205;-71
2023/08/23 11:06:53;;;;;;;2.53;1.77;;;30.80;92.10;;;;;;4968909;28;20571;-71
2023/08/23 11:09:19;;;;;;;2.65;1.50;;;30.90;91.90;;;;;;4967135;28;20394;-73
2023/08/23 11:11:45;;;;;;;5.32;2.13;;;30.70;92.10;;;;;;4969176;28;20752;-71
2023/08/23 11:14:11;;;;;;;3.05;1.80;;;30.50;92.10;;;;;;4966387;28;20217;-70
2023/08/23 11:16:38;;;;;;;6.07;1.70;;;30.40;92.50;;;;;;4968263;28;20249;-71
2023/08/23 11:19:05;;;;;;;4.07;2.38;;;30.40;93.10;;;;;;4966290;28;20182;-71
2023/08/23 11:21:35;;;;;;;4.45;3.45;;;30.20;93.10;;;;;;4967307;28;20278;-71
2023/08/23 11:24:04;;;;;;;5.35;1.75;;;30.20;92.90;;;;;;4966410;28;20210;-71
2023/08/23 11:26:34;;;;;;;1.83;1.48;;;30.30;93.30;;;;;;4961199;28;20298;-71
2023/08/23 11:29:01;;;;;;;3.28;2.03;;;30.10;92.90;;;;;;4969564;28;20206;-71
2023/08/23 11:31:27;;;;;;;3.20;2.03;;;29.80;93.30;;;;;;4967635;28;20791;-69
2023/08/23 11:33:53;;;;;;;2.63;1.70;;;29.70;93.80;;;;;;4970597;28;20202;-71
2023/08/23 11:36:20;;;;;;;3.85;2.20;;;29.90;94.10;;;;;;4969269;28;20206;-70
2023/08/23 11:38:49;;;;;;;4.80;1.90;;;30.10;93.60;;;;;;4968525;28;20269;-71
2023/08/23 11:41:25;;;;;;;4.00;2.70;;;30.10;93.70;;;;;;4965067;28;20210;-71
2023/08/23 11:43:53;;;;;;;3.67;2.10;;;30.10;93.40;;;;;;4968414;28;20709;-71
2023/08/23 11:46:19;;;;;;;2.33;1.75;;;29.90;93.50;;;;;;4971074;28;20186;-72
2023/08/23 11:48:44;;;;;;;3.20;2.08;;;30.00;93.50;;;;;;4970185;28;20270;-71
2023/08/23 11:51:10;;;;;;;3.75;1.98;;;30.00;93.50;;;;;;4970336;28;20222;-71
2023/08/23 11:53:36;;;;;;;5.05;1.77;;;30.10;93.30;;;;;;4972918;28;20743;-71
2023/08/23 11:56:06;;;;;;;5.40;2.22;;;30.10;93.50;;;;;;4969179;28;20229;-71
2023/08/23 11:58:32;;;;;;;5.65;1.80;;;30.30;93.60;;;;;;4965606;28;20467;-71
2023/08/23 12:00:58;;;;;;;5.85;2.63;;;30.40;93.10;;;;;;4968571;28;20249;-72
2023/08/23 12:03:23;;;;;;;3.30;1.52;;;30.40;93.20;;;;;;4964563;28;20211;-71
2023/08/23 12:05:49;;;;;;;10.77;2.08;;;30.50;92.90;;;;;;4966024;28;20221;-71
2023/08/23 12:08:15;;;;;;;2.88;1.40;;;30.50;92.80;;;;;;4970431;28;20701;-71
2023/08/23 12:10:40;;;;;;;5.50;1.85;;;30.30;92.40;;;;;;4973180;28;20222;-71
2023/08/23 12:13:06;;;;;;;4.00;1.48;;;29.60;92.60;;;;;;4973548;28;20217;-72
2023/08/23 12:15:32;;;;;;;1.10;1.05;;;29.10;93.00;;;;;;4971768;28;20275;-71
2023/08/23 12:17:58;;;;;;;2.45;1.50;;;29.10;93.20;;;;;;4973009;28;20624;-71
2023/08/23 12:20:23;;;;;;;1.63;1.30;;;29.40;93.20;;;;;;4971269;28;20301;-71
2023/08/23 12:22:50;;;;;;;2.75;1.55;;;29.60;93.00;;;;;;4969695;28;20213;-71
2023/08/23 12:25:16;;;;;;;3.95;1.60;;;29.90;92.80;;;;;;4970211;28;20711;-71
2023/08/23 12:27:42;;;;;;;3.75;2.25;;;29.70;92.80;;;;;;4966586;28;20274;-71
2023/08/23 12:30:11;;;;;;;3.58;1.80;;;29.70;92.80;;;;;;4969388;28;20253;-71
2023/08/23 12:32:37;;;;;;;3.38;1.52;;;29.90;92.20;;;;;;4969870;28;20266;-71
2023/08/23 12:35:06;;;;;;;3.53;1.73;;;29.70;92.50;;;;;;4968134;28;20218;-71
2023/08/23 12:37:32;;;;;;;1.80;1.50;;;29.60;92.60;;;;;;4964032;28;20214;-71
2023/08/23 12:39:58;;;;;;;4.22;1.23;;;29.60;91.40;;;;;;4967625;28;20186;-71
2023/08/23 12:42:23;;;;;;;4.38;1.60;;;29.00;91.50;;;;;;4967461;28;20277;-71